Avon, Illinois
Current Conditions -  °F | °C
As of 3:35 PM on Thursday 23 Oct 2014 (Local Time) from KMQB Reporting Station
Overcast Overcast  
Wind Chill: 15°   Ceiling: 8000
Heat Index: 15°   Visibility: 10mi
Dew Point:   Wind: 7mph
Humidity: 65%   Direction: 170°S
Pressure: 30.09"   Gusts: NA
Location:  40.66°N, 90.43°W
Report Text: KMQB 232035Z AUTO 17006KT 10SM BKN080 OVC095 15/08 A3009 RMK AO2 T01500084
Loading
Personal Weather Stations






























Interactive Weather Map
Tropical Storm Tracking
New forecast layout! Learn more

10-Day Weather Forecast

Advertisements
Track Severe Weather on mobile